sensor_id;sensor_type;location;lat;lon;timestamp;P1;durP1;ratioP1;P2;durP2;ratioP2
71042;SDS011;58696;52.134;5.500;2022-08-07T00:01:14;4.88;;;1.90;;
71042;SDS011;58696;52.134;5.500;2022-08-07T00:06:31;1.80;;;1.48;;
71042;SDS011;58696;52.134;5.500;2022-08-07T00:08:59;1.98;;;1.65;;
71042;SDS011;58696;52.134;5.500;2022-08-07T00:11:46;2.03;;;1.75;;
71042;SDS011;58696;52.134;5.500;2022-08-07T00:14:22;2.47;;;1.63;;
71042;SDS011;58696;52.134;5.500;2022-08-07T00:16:56;2.60;;;1.88;;
71042;SDS011;58696;52.134;5.500;2022-08-07T00:19:24;3.75;;;1.60;;
71042;SDS011;58696;52.134;5.500;2022-08-07T00:22:11;2.33;;;1.73;;
71042;SDS011;58696;52.134;5.500;2022-08-07T00:24:50;1.65;;;1.55;;
71042;SDS011;58696;52.134;5.500;2022-08-07T00:27:16;1.63;;;1.52;;
71042;SDS011;58696;52.134;5.500;2022-08-07T00:29:47;2.10;;;1.80;;
71042;SDS011;58696;52.134;5.500;2022-08-07T00:32:15;1.73;;;1.38;;
71042;SDS011;58696;52.134;5.500;2022-08-07T00:34:53;2.47;;;1.92;;
71042;SDS011;58696;52.134;5.500;2022-08-07T00:37:20;4.57;;;1.90;;
71042;SDS011;58696;52.134;5.500;2022-08-07T00:39:47;2.90;;;1.92;;
71042;SDS011;58696;52.134;5.500;2022-08-07T00:42:20;1.50;;;1.40;;
71042;SDS011;58696;52.134;5.500;2022-08-07T00:44:54;2.17;;;1.60;;
71042;SDS011;58696;52.134;5.500;2022-08-07T00:47:21;2.67;;;1.60;;
71042;SDS011;58696;52.134;5.500;2022-08-07T00:50:08;1.93;;;1.80;;
71042;SDS011;58696;52.134;5.500;2022-08-07T00:52:54;2.58;;;1.83;;
71042;SDS011;58696;52.134;5.500;2022-08-07T00:55:21;1.90;;;1.80;;
71042;SDS011;58696;52.134;5.500;2022-08-07T00:58:07;2.03;;;1.63;;
71042;SDS011;58696;52.134;5.500;2022-08-07T01:00:34;1.83;;;1.73;;
71042;SDS011;58696;52.134;5.500;2022-08-07T01:03:00;2.10;;;1.90;;
71042;SDS011;58696;52.134;5.500;2022-08-07T01:05:31;4.13;;;1.75;;
71042;SDS011;58696;52.134;5.500;2022-08-07T01:08:03;2.30;;;2.10;;
71042;SDS011;58696;52.134;5.500;2022-08-07T01:10:34;1.83;;;1.73;;
71042;SDS011;58696;52.134;5.500;2022-08-07T01:13:01;1.80;;;1.70;;
71042;SDS011;58696;52.134;5.500;2022-08-07T01:15:27;2.45;;;1.70;;
71042;SDS011;58696;52.134;5.500;2022-08-07T01:18:16;2.45;;;1.80;;
71042;SDS011;58696;52.134;5.500;2022-08-07T01:20:45;1.90;;;1.80;;
71042;SDS011;58696;52.134;5.500;2022-08-07T01:23:24;1.70;;;1.60;;
71042;SDS011;58696;52.134;5.500;2022-08-07T01:26:04;1.88;;;1.70;;
71042;SDS011;58696;52.134;5.500;2022-08-07T01:28:38;2.10;;;1.67;;
71042;SDS011;58696;52.134;5.500;2022-08-07T01:31:14;1.75;;;1.65;;
71042;SDS011;58696;52.134;5.500;2022-08-07T01:33:45;1.60;;;1.50;;
71042;SDS011;58696;52.134;5.500;2022-08-07T01:36:26;1.80;;;1.70;;
71042;SDS011;58696;52.134;5.500;2022-08-07T01:38:59;2.67;;;2.08;;
71042;SDS011;58696;52.134;5.500;2022-08-07T01:41:26;2.15;;;1.85;;
71042;SDS011;58696;52.134;5.500;2022-08-07T01:43:55;3.30;;;2.22;;
71042;SDS011;58696;52.134;5.500;2022-08-07T01:46:22;3.15;;;2.15;;
71042;SDS011;58696;52.134;5.500;2022-08-07T01:48:48;2.40;;;2.20;;
71042;SDS011;58696;52.134;5.500;2022-08-07T01:51:22;5.72;;;2.30;;
71042;SDS011;58696;52.134;5.500;2022-08-07T01:54:10;3.53;;;2.20;;
71042;SDS011;58696;52.134;5.500;2022-08-07T01:57:03;1.52;;;1.42;;
71042;SDS011;58696;52.134;5.500;2022-08-07T02:02:20;2.10;;;1.75;;
71042;SDS011;58696;52.134;5.500;2022-08-07T02:05:13;1.75;;;1.65;;
71042;SDS011;58696;52.134;5.500;2022-08-07T02:08:23;2.10;;;1.90;;
71042;SDS011;58696;52.134;5.500;2022-08-07T02:10:51;2.22;;;2.00;;
71042;SDS011;58696;52.134;5.500;2022-08-07T02:13:25;2.17;;;2.03;;
71042;SDS011;58696;52.134;5.500;2022-08-07T02:16:14;1.63;;;1.52;;
71042;SDS011;58696;52.134;5.500;2022-08-07T02:18:44;2.13;;;1.80;;
71042;SDS011;58696;52.134;5.500;2022-08-07T02:23:41;1.67;;;1.55;;
71042;SDS011;58696;52.134;5.500;2022-08-07T02:26:10;1.75;;;1.60;;
71042;SDS011;58696;52.134;5.500;2022-08-07T02:28:59;1.60;;;1.50;;
71042;SDS011;58696;52.134;5.500;2022-08-07T02:31:29;2.63;;;1.73;;
71042;SDS011;58696;52.134;5.500;2022-08-07T02:36:29;1.75;;;1.60;;
71042;SDS011;58696;52.134;5.500;2022-08-07T02:39:00;1.60;;;1.50;;
71042;SDS011;58696;52.134;5.500;2022-08-07T02:41:49;2.35;;;1.77;;
71042;SDS011;58696;52.134;5.500;2022-08-07T02:44:20;1.63;;;1.52;;
71042;SDS011;58696;52.134;5.500;2022-08-07T02:47:00;2.20;;;1.70;;
71042;SDS011;58696;52.134;5.500;2022-08-07T02:49:29;2.15;;;1.95;;
71042;SDS011;58696;52.134;5.500;2022-08-07T02:52:20;2.38;;;2.17;;
71042;SDS011;58696;52.134;5.500;2022-08-07T02:54:58;2.40;;;2.20;;
71042;SDS011;58696;52.134;5.500;2022-08-07T02:57:29;2.20;;;1.95;;
71042;SDS011;58696;52.134;5.500;2022-08-07T03:00:00;3.70;;;1.92;;
71042;SDS011;58696;52.134;5.500;2022-08-07T03:02:35;1.65;;;1.55;;
71042;SDS011;58696;52.134;5.500;2022-08-07T03:05:19;1.23;;;1.17;;
71042;SDS011;58696;52.134;5.500;2022-08-07T03:07:50;2.33;;;1.67;;
71042;SDS011;58696;52.134;5.500;2022-08-07T03:10:34;3.33;;;1.83;;
71042;SDS011;58696;52.134;5.500;2022-08-07T03:13:06;2.55;;;2.35;;
71042;SDS011;58696;52.134;5.500;2022-08-07T03:15:33;2.95;;;2.15;;
71042;SDS011;58696;52.134;5.500;2022-08-07T03:18:21;2.27;;;1.80;;
71042;SDS011;58696;52.134;5.500;2022-08-07T03:21:01;2.03;;;1.83;;
71042;SDS011;58696;52.134;5.500;2022-08-07T03:23:37;2.90;;;2.25;;
71042;SDS011;58696;52.134;5.500;2022-08-07T03:26:25;5.22;;;2.05;;
71042;SDS011;58696;52.134;5.500;2022-08-07T03:28:54;2.45;;;2.10;;
71042;SDS011;58696;52.134;5.500;2022-08-07T03:31:22;2.45;;;2.25;;
71042;SDS011;58696;52.134;5.500;2022-08-07T03:34:08;2.78;;;2.55;;
71042;SDS011;58696;52.134;5.500;2022-08-07T03:36:47;2.40;;;2.20;;
71042;SDS011;58696;52.134;5.500;2022-08-07T03:39:16;3.13;;;2.40;;
71042;SDS011;58696;52.134;5.500;2022-08-07T03:42:04;2.65;;;1.85;;
71042;SDS011;58696;52.134;5.500;2022-08-07T03:44:32;1.85;;;1.75;;
71042;SDS011;58696;52.134;5.500;2022-08-07T03:47:00;1.98;;;1.50;;
71042;SDS011;58696;52.134;5.500;2022-08-07T03:49:39;2.20;;;1.63;;
71042;SDS011;58696;52.134;5.500;2022-08-07T03:52:16;4.03;;;2.13;;
71042;SDS011;58696;52.134;5.500;2022-08-07T03:54:51;4.47;;;2.00;;
71042;SDS011;58696;52.134;5.500;2022-08-07T03:57:22;1.88;;;1.77;;
71042;SDS011;58696;52.134;5.500;2022-08-07T04:00:11;2.30;;;2.10;;
71042;SDS011;58696;52.134;5.500;2022-08-07T04:02:40;2.72;;;2.05;;
71042;SDS011;58696;52.134;5.500;2022-08-07T04:05:12;2.45;;;1.80;;
71042;SDS011;58696;52.134;5.500;2022-08-07T04:07:49;11.00;;;2.00;;
71042;SDS011;58696;52.134;5.500;2022-08-07T04:10:17;2.38;;;1.98;;
71042;SDS011;58696;52.134;5.500;2022-08-07T04:12:49;2.38;;;2.17;;
71042;SDS011;58696;52.134;5.500;2022-08-07T04:15:16;3.03;;;2.70;;
71042;SDS011;58696;52.134;5.500;2022-08-07T04:17:43;3.15;;;2.20;;
71042;SDS011;58696;52.134;5.500;2022-08-07T04:20:31;2.25;;;2.05;;
71042;SDS011;58696;52.134;5.500;2022-08-07T04:23:00;2.75;;;2.00;;
71042;SDS011;58696;52.134;5.500;2022-08-07T04:25:31;2.08;;;1.90;;
71042;SDS011;58696;52.134;5.500;2022-08-07T04:28:05;7.95;;;2.20;;
71042;SDS011;58696;52.134;5.500;2022-08-07T04:30:33;2.47;;;2.28;;
71042;SDS011;58696;52.134;5.500;2022-08-07T04:33:09;5.10;;;2.42;;
71042;SDS011;58696;52.134;5.500;2022-08-07T04:35:42;5.95;;;2.47;;
71042;SDS011;58696;52.134;5.500;2022-08-07T04:38:16;3.10;;;2.80;;
71042;SDS011;58696;52.134;5.500;2022-08-07T04:40:44;2.55;;;2.35;;
71042;SDS011;58696;52.134;5.500;2022-08-07T04:43:30;2.13;;;1.92;;
71042;SDS011;58696;52.134;5.500;2022-08-07T04:49:17;1.70;;;1.60;;
71042;SDS011;58696;52.134;5.500;2022-08-07T04:55:03;3.47;;;2.00;;
71042;SDS011;58696;52.134;5.500;2022-08-07T04:58:04;1.90;;;1.80;;
71042;SDS011;58696;52.134;5.500;2022-08-07T05:01:03;1.92;;;1.83;;
71042;SDS011;58696;52.134;5.500;2022-08-07T05:09:57;2.58;;;1.77;;
71042;SDS011;58696;52.134;5.500;2022-08-07T05:12:41;2.10;;;1.90;;
71042;SDS011;58696;52.134;5.500;2022-08-07T05:15:30;2.00;;;1.83;;
71042;SDS011;58696;52.134;5.500;2022-08-07T05:18:06;2.78;;;2.00;;
71042;SDS011;58696;52.134;5.500;2022-08-07T05:20:44;3.17;;;2.50;;
71042;SDS011;58696;52.134;5.500;2022-08-07T05:23:17;4.30;;;3.08;;
71042;SDS011;58696;52.134;5.500;2022-08-07T05:25:54;3.28;;;2.97;;
71042;SDS011;58696;52.134;5.500;2022-08-07T05:28:42;3.08;;;2.70;;
71042;SDS011;58696;52.134;5.500;2022-08-07T05:31:16;3.30;;;2.67;;
71042;SDS011;58696;52.134;5.500;2022-08-07T05:33:45;3.15;;;2.85;;
71042;SDS011;58696;52.134;5.500;2022-08-07T05:36:30;2.97;;;2.67;;
71042;SDS011;58696;52.134;5.500;2022-08-07T05:39:01;3.10;;;2.72;;
71042;SDS011;58696;52.134;5.500;2022-08-07T05:41:48;3.05;;;2.78;;
71042;SDS011;58696;52.134;5.500;2022-08-07T05:44:29;5.45;;;3.25;;
71042;SDS011;58696;52.134;5.500;2022-08-07T05:47:00;4.22;;;3.25;;
71042;SDS011;58696;52.134;5.500;2022-08-07T05:49:46;7.15;;;3.33;;
71042;SDS011;58696;52.134;5.500;2022-08-07T05:52:15;3.55;;;3.25;;
71042;SDS011;58696;52.134;5.500;2022-08-07T05:54:45;9.70;;;3.60;;
71042;SDS011;58696;52.134;5.500;2022-08-07T05:57:21;5.60;;;3.72;;
71042;SDS011;58696;52.134;5.500;2022-08-07T05:59:56;4.85;;;3.70;;
71042;SDS011;58696;52.134;5.500;2022-08-07T06:02:25;14.07;;;4.05;;
71042;SDS011;58696;52.134;5.500;2022-08-07T06:04:56;11.30;;;4.18;;
71042;SDS011;58696;52.134;5.500;2022-08-07T06:07:28;5.65;;;4.20;;
71042;SDS011;58696;52.134;5.500;2022-08-07T06:12:43;7.20;;;3.80;;
71042;SDS011;58696;52.134;5.500;2022-08-07T06:15:12;5.18;;;3.70;;
71042;SDS011;58696;52.134;5.500;2022-08-07T06:17:45;5.43;;;4.20;;
71042;SDS011;58696;52.134;5.500;2022-08-07T06:20:20;13.05;;;4.28;;
71042;SDS011;58696;52.134;5.500;2022-08-07T06:22:58;6.05;;;4.63;;
71042;SDS011;58696;52.134;5.500;2022-08-07T06:25:46;5.35;;;4.70;;
71042;SDS011;58696;52.134;5.500;2022-08-07T06:28:25;6.75;;;4.32;;
71042;SDS011;58696;52.134;5.500;2022-08-07T06:30:54;13.15;;;4.93;;
71042;SDS011;58696;52.134;5.500;2022-08-07T06:33:24;7.82;;;5.00;;
71042;SDS011;58696;52.134;5.500;2022-08-07T06:35:51;5.70;;;4.82;;
71042;SDS011;58696;52.134;5.500;2022-08-07T06:38:37;5.95;;;5.20;;
71042;SDS011;58696;52.134;5.500;2022-08-07T06:42:12;6.43;;;4.80;;
71042;SDS011;58696;52.134;5.500;2022-08-07T06:44:28;7.25;;;5.10;;
71042;SDS011;58696;52.134;5.500;2022-08-07T06:47:02;9.27;;;6.20;;
71042;SDS011;58696;52.134;5.500;2022-08-07T06:49:40;7.88;;;5.22;;
71042;SDS011;58696;52.134;5.500;2022-08-07T06:52:17;6.20;;;4.82;;
71042;SDS011;58696;52.134;5.500;2022-08-07T06:55:01;5.63;;;5.10;;
71042;SDS011;58696;52.134;5.500;2022-08-07T06:57:58;8.60;;;5.15;;
71042;SDS011;58696;52.134;5.500;2022-08-07T07:00:31;7.55;;;5.20;;
71042;SDS011;58696;52.134;5.500;2022-08-07T07:03:03;6.07;;;4.88;;
71042;SDS011;58696;52.134;5.500;2022-08-07T07:05:36;8.43;;;5.40;;
71042;SDS011;58696;52.134;5.500;2022-08-07T07:08:27;6.63;;;4.97;;
71042;SDS011;58696;52.134;5.500;2022-08-07T07:10:59;12.63;;;5.20;;
71042;SDS011;58696;52.134;5.500;2022-08-07T07:13:47;8.02;;;5.75;;
71042;SDS011;58696;52.134;5.500;2022-08-07T07:16:26;9.60;;;5.30;;
71042;SDS011;58696;52.134;5.500;2022-08-07T07:19:15;6.15;;;5.35;;
71042;SDS011;58696;52.134;5.500;2022-08-07T07:22:07;10.32;;;6.03;;
71042;SDS011;58696;52.134;5.500;2022-08-07T07:24:55;5.95;;;4.72;;
71042;SDS011;58696;52.134;5.500;2022-08-07T07:27:40;11.30;;;4.88;;
71042;SDS011;58696;52.134;5.500;2022-08-07T07:30:30;7.20;;;4.65;;
71042;SDS011;58696;52.134;5.500;2022-08-07T07:33:05;4.53;;;3.78;;
71042;SDS011;58696;52.134;5.500;2022-08-07T07:35:37;6.68;;;4.00;;
71042;SDS011;58696;52.134;5.500;2022-08-07T07:38:26;4.68;;;3.60;;
71042;SDS011;58696;52.134;5.500;2022-08-07T07:40:55;9.05;;;3.83;;
71042;SDS011;58696;52.134;5.500;2022-08-07T07:43:28;4.40;;;3.70;;
71042;SDS011;58696;52.134;5.500;2022-08-07T07:46:16;4.55;;;3.30;;
71042;SDS011;58696;52.134;5.500;2022-08-07T07:49:04;5.10;;;2.80;;
71042;SDS011;58696;52.134;5.500;2022-08-07T07:51:53;5.28;;;2.90;;
71042;SDS011;58696;52.134;5.500;2022-08-07T07:54:25;5.60;;;2.42;;
71042;SDS011;58696;52.134;5.500;2022-08-07T07:56:53;3.00;;;2.58;;
71042;SDS011;58696;52.134;5.500;2022-08-07T07:59:23;2.65;;;1.85;;
71042;SDS011;58696;52.134;5.500;2022-08-07T08:02:10;2.72;;;2.05;;
71042;SDS011;58696;52.134;5.500;2022-08-07T08:05:01;2.72;;;2.53;;
71042;SDS011;58696;52.134;5.500;2022-08-07T08:07:30;2.72;;;2.22;;
71042;SDS011;58696;52.134;5.500;2022-08-07T08:10:01;3.50;;;2.22;;
71042;SDS011;58696;52.134;5.500;2022-08-07T08:12:31;3.83;;;2.10;;
71042;SDS011;58696;52.134;5.500;2022-08-07T08:15:19;4.50;;;1.88;;
71042;SDS011;58696;52.134;5.500;2022-08-07T08:17:48;2.05;;;1.85;;
71042;SDS011;58696;52.134;5.500;2022-08-07T08:20:23;2.72;;;1.83;;
71042;SDS011;58696;52.134;5.500;2022-08-07T08:22:58;3.80;;;1.80;;
71042;SDS011;58696;52.134;5.500;2022-08-07T08:25:53;2.50;;;2.03;;
71042;SDS011;58696;52.134;5.500;2022-08-07T08:28:42;2.58;;;1.90;;
71042;SDS011;58696;52.134;5.500;2022-08-07T08:31:12;6.28;;;2.42;;
71042;SDS011;58696;52.134;5.500;2022-08-07T08:34:09;3.58;;;1.80;;
71042;SDS011;58696;52.134;5.500;2022-08-07T08:36:52;1.77;;;1.67;;
71042;SDS011;58696;52.134;5.500;2022-08-07T08:39:23;3.55;;;2.08;;
71042;SDS011;58696;52.134;5.500;2022-08-07T08:42:14;4.30;;;1.85;;
71042;SDS011;58696;52.134;5.500;2022-08-07T08:44:59;2.90;;;1.90;;
71042;SDS011;58696;52.134;5.500;2022-08-07T08:50:26;6.10;;;2.42;;
71042;SDS011;58696;52.134;5.500;2022-08-07T08:55:36;4.35;;;1.95;;
71042;SDS011;58696;52.134;5.500;2022-08-07T09:00:57;3.25;;;1.90;;
71042;SDS011;58696;52.134;5.500;2022-08-07T09:03:47;3.60;;;1.70;;
71042;SDS011;58696;52.134;5.500;2022-08-07T09:12:36;2.67;;;2.10;;
71042;SDS011;58696;52.134;5.500;2022-08-07T09:27:31;2.85;;;2.10;;
71042;SDS011;58696;52.134;5.500;2022-08-07T09:30:26;2.63;;;1.98;;
71042;SDS011;58696;52.134;5.500;2022-08-07T09:33:14;7.28;;;1.98;;
71042;SDS011;58696;52.134;5.500;2022-08-07T09:39:08;2.15;;;1.95;;
71042;SDS011;58696;52.134;5.500;2022-08-07T09:45:30;2.65;;;2.05;;
71042;SDS011;58696;52.134;5.500;2022-08-07T09:51:42;3.38;;;2.05;;
71042;SDS011;58696;52.134;5.500;2022-08-07T10:23:48;4.00;;;1.58;;
71042;SDS011;58696;52.134;5.500;2022-08-07T10:32:26;5.85;;;1.38;;
71042;SDS011;58696;52.134;5.500;2022-08-07T10:38:16;1.80;;;1.42;;
71042;SDS011;58696;52.134;5.500;2022-08-07T10:41:14;2.53;;;1.45;;
71042;SDS011;58696;52.134;5.500;2022-08-07T10:44:14;2.65;;;1.63;;
71042;SDS011;58696;52.134;5.500;2022-08-07T10:47:12;2.45;;;1.52;;
71042;SDS011;58696;52.134;5.500;2022-08-07T10:50:16;1.80;;;1.40;;
71042;SDS011;58696;52.134;5.500;2022-08-07T10:55:51;1.53;;;1.43;;
71042;SDS011;58696;52.134;5.500;2022-08-07T11:02:09;1.98;;;1.58;;
71042;SDS011;58696;52.134;5.500;2022-08-07T11:14:03;3.35;;;1.40;;
71042;SDS011;58696;52.134;5.500;2022-08-07T11:20:17;1.90;;;1.00;;
71042;SDS011;58696;52.134;5.500;2022-08-07T11:22:54;2.08;;;1.35;;
71042;SDS011;58696;52.134;5.500;2022-08-07T11:25:34;3.33;;;1.30;;
71042;SDS011;58696;52.134;5.500;2022-08-07T11:28:16;1.58;;;1.10;;
71042;SDS011;58696;52.134;5.500;2022-08-07T11:33:22;5.32;;;1.63;;
71042;SDS011;58696;52.134;5.500;2022-08-07T11:39:46;2.33;;;1.10;;
71042;SDS011;58696;52.134;5.500;2022-08-07T11:42:50;3.10;;;1.30;;
71042;SDS011;58696;52.134;5.500;2022-08-07T11:45:27;2.17;;;1.17;;
71042;SDS011;58696;52.134;5.500;2022-08-07T11:48:10;1.00;;;1.00;;
71042;SDS011;58696;52.134;5.500;2022-08-07T11:57:15;1.83;;;1.15;;
71042;SDS011;58696;52.134;5.500;2022-08-07T12:09:23;1.55;;;1.30;;
71042;SDS011;58696;52.134;5.500;2022-08-07T12:12:06;1.90;;;1.15;;
71042;SDS011;58696;52.134;5.500;2022-08-07T12:14:57;1.23;;;1.13;;
71042;SDS011;58696;52.134;5.500;2022-08-07T12:17:31;1.13;;;1.02;;
71042;SDS011;58696;52.134;5.500;2022-08-07T12:20:07;1.13;;;0.83;;
71042;SDS011;58696;52.134;5.500;2022-08-07T12:26:13;1.55;;;0.85;;
71042;SDS011;58696;52.134;5.500;2022-08-07T12:29:02;0.85;;;0.85;;
71042;SDS011;58696;52.134;5.500;2022-08-07T12:34:34;1.73;;;0.98;;
71042;SDS011;58696;52.134;5.500;2022-08-07T12:37:04;1.45;;;1.05;;
71042;SDS011;58696;52.134;5.500;2022-08-07T12:39:53;2.90;;;1.02;;
71042;SDS011;58696;52.134;5.500;2022-08-07T12:42:24;1.50;;;0.90;;
71042;SDS011;58696;52.134;5.500;2022-08-07T12:44:57;1.20;;;1.10;;
71042;SDS011;58696;52.134;5.500;2022-08-07T12:47:54;1.25;;;1.02;;
71042;SDS011;58696;52.134;5.500;2022-08-07T12:50:45;1.25;;;1.10;;
71042;SDS011;58696;52.134;5.500;2022-08-07T12:53:28;1.20;;;1.10;;
71042;SDS011;58696;52.134;5.500;2022-08-07T12:56:25;2.08;;;1.20;;
71042;SDS011;58696;52.134;5.500;2022-08-07T12:58:57;1.23;;;1.13;;
71042;SDS011;58696;52.134;5.500;2022-08-07T13:04:54;1.63;;;1.52;;
71042;SDS011;58696;52.134;5.500;2022-08-07T13:19:11;1.50;;;1.40;;
71042;SDS011;58696;52.134;5.500;2022-08-07T13:27:50;2.90;;;1.92;;
71042;SDS011;58696;52.134;5.500;2022-08-07T13:30:39;1.98;;;1.80;;
71042;SDS011;58696;52.134;5.500;2022-08-07T13:36:41;2.70;;;1.95;;
71042;SDS011;58696;52.134;5.500;2022-08-07T13:39:38;6.65;;;2.40;;
71042;SDS011;58696;52.134;5.500;2022-08-07T13:42:34;6.65;;;1.88;;
71042;SDS011;58696;52.134;5.500;2022-08-07T13:45:05;2.38;;;1.95;;
71042;SDS011;58696;52.134;5.500;2022-08-07T13:47:54;2.22;;;1.85;;
71042;SDS011;58696;52.134;5.500;2022-08-07T13:50:34;6.13;;;1.85;;
71042;SDS011;58696;52.134;5.500;2022-08-07T13:53:28;2.67;;;1.90;;
71042;SDS011;58696;52.134;5.500;2022-08-07T13:56:21;1.92;;;1.75;;
71042;SDS011;58696;52.134;5.500;2022-08-07T13:59:28;2.22;;;2.03;;
71042;SDS011;58696;52.134;5.500;2022-08-07T14:02:24;2.58;;;1.58;;
71042;SDS011;58696;52.134;5.500;2022-08-07T14:05:14;1.50;;;1.40;;
71042;SDS011;58696;52.134;5.500;2022-08-07T14:07:48;3.28;;;1.40;;
71042;SDS011;58696;52.134;5.500;2022-08-07T14:10:31;2.03;;;1.38;;
71042;SDS011;58696;52.134;5.500;2022-08-07T14:13:07;2.85;;;1.50;;
71042;SDS011;58696;52.134;5.500;2022-08-07T14:15:42;3.30;;;1.50;;
71042;SDS011;58696;52.134;5.500;2022-08-07T14:18:19;1.63;;;1.20;;
71042;SDS011;58696;52.134;5.500;2022-08-07T14:21:00;1.48;;;1.20;;
71042;SDS011;58696;52.134;5.500;2022-08-07T14:23:37;1.48;;;1.38;;
71042;SDS011;58696;52.134;5.500;2022-08-07T14:26:29;2.40;;;1.10;;
71042;SDS011;58696;52.134;5.500;2022-08-07T14:29:03;1.33;;;1.17;;
71042;SDS011;58696;52.134;5.500;2022-08-07T14:31:53;3.67;;;1.20;;
71042;SDS011;58696;52.134;5.500;2022-08-07T14:34:25;0.80;;;0.80;;
71042;SDS011;58696;52.134;5.500;2022-08-07T14:36:58;1.77;;;1.00;;
71042;SDS011;58696;52.134;5.500;2022-08-07T14:39:29;0.80;;;0.80;;
71042;SDS011;58696;52.134;5.500;2022-08-07T14:42:21;0.98;;;0.90;;
71042;SDS011;58696;52.134;5.500;2022-08-07T14:44:57;1.15;;;0.90;;
71042;SDS011;58696;52.134;5.500;2022-08-07T14:47:46;1.05;;;0.95;;
71042;SDS011;58696;52.134;5.500;2022-08-07T14:50:24;2.10;;;1.00;;
71042;SDS011;58696;52.134;5.500;2022-08-07T14:52:54;2.05;;;1.80;;
71042;SDS011;58696;52.134;5.500;2022-08-07T14:55:42;1.60;;;0.90;;
71042;SDS011;58696;52.134;5.500;2022-08-07T14:58:25;1.15;;;1.02;;
71042;SDS011;58696;52.134;5.500;2022-08-07T15:00:57;3.72;;;1.10;;
71042;SDS011;58696;52.134;5.500;2022-08-07T15:03:45;1.52;;;0.98;;
71042;SDS011;58696;52.134;5.500;2022-08-07T15:06:29;3.78;;;1.27;;
71042;SDS011;58696;52.134;5.500;2022-08-07T15:09:06;2.90;;;1.27;;
71042;SDS011;58696;52.134;5.500;2022-08-07T15:11:57;1.33;;;1.15;;
71042;SDS011;58696;52.134;5.500;2022-08-07T15:14:31;2.17;;;1.20;;
71042;SDS011;58696;52.134;5.500;2022-08-07T15:17:23;3.10;;;1.00;;
71042;SDS011;58696;52.134;5.500;2022-08-07T15:20:17;3.13;;;1.02;;
71042;SDS011;58696;52.134;5.500;2022-08-07T15:23:00;2.88;;;1.38;;
71042;SDS011;58696;52.134;5.500;2022-08-07T15:25:52;2.03;;;1.23;;
71042;SDS011;58696;52.134;5.500;2022-08-07T15:28:23;1.42;;;1.15;;
71042;SDS011;58696;52.134;5.500;2022-08-07T15:31:04;1.67;;;1.30;;
71042;SDS011;58696;52.134;5.500;2022-08-07T15:33:34;2.55;;;1.20;;
71042;SDS011;58696;52.134;5.500;2022-08-07T15:36:08;1.35;;;1.00;;
71042;SDS011;58696;52.134;5.500;2022-08-07T15:38:35;3.78;;;1.08;;
71042;SDS011;58696;52.134;5.500;2022-08-07T15:41:24;2.03;;;1.27;;
71042;SDS011;58696;52.134;5.500;2022-08-07T15:44:16;3.10;;;1.30;;
71042;SDS011;58696;52.134;5.500;2022-08-07T15:46:54;1.55;;;1.20;;
71042;SDS011;58696;52.134;5.500;2022-08-07T15:49:33;3.05;;;1.40;;
71042;SDS011;58696;52.134;5.500;2022-08-07T15:52:23;1.48;;;1.20;;
71042;SDS011;58696;52.134;5.500;2022-08-07T15:54:56;2.70;;;1.42;;
71042;SDS011;58696;52.134;5.500;2022-08-07T15:57:31;1.48;;;1.13;;
71042;SDS011;58696;52.134;5.500;2022-08-07T16:00:14;4.15;;;1.05;;
71042;SDS011;58696;52.134;5.500;2022-08-07T16:03:00;1.75;;;1.50;;
71042;SDS011;58696;52.134;5.500;2022-08-07T16:05:29;1.58;;;1.20;;
71042;SDS011;58696;52.134;5.500;2022-08-07T16:10:59;1.20;;;1.10;;
71042;SDS011;58696;52.134;5.500;2022-08-07T16:14:05;1.95;;;1.40;;
71042;SDS011;58696;52.134;5.500;2022-08-07T16:16:59;3.90;;;1.48;;
71042;SDS011;58696;52.134;5.500;2022-08-07T16:26:14;5.28;;;1.40;;
71042;SDS011;58696;52.134;5.500;2022-08-07T16:32:07;3.53;;;1.50;;
71042;SDS011;58696;52.134;5.500;2022-08-07T16:35:08;3.42;;;1.73;;
71042;SDS011;58696;52.134;5.500;2022-08-07T16:40:43;2.60;;;2.38;;
71042;SDS011;58696;52.134;5.500;2022-08-07T16:43:36;1.85;;;1.50;;
71042;SDS011;58696;52.134;5.500;2022-08-07T17:07:07;2.30;;;1.70;;
71042;SDS011;58696;52.134;5.500;2022-08-07T17:35:18;6.93;;;1.60;;
71042;SDS011;58696;52.134;5.500;2022-08-07T17:38:38;1.85;;;1.40;;
71042;SDS011;58696;52.134;5.500;2022-08-07T17:41:38;3.25;;;1.70;;
71042;SDS011;58696;52.134;5.500;2022-08-07T17:47:17;2.55;;;1.45;;
71042;SDS011;58696;52.134;5.500;2022-08-07T17:53:04;3.47;;;1.70;;
71042;SDS011;58696;52.134;5.500;2022-08-07T17:55:59;3.78;;;1.65;;
71042;SDS011;58696;52.134;5.500;2022-08-07T17:58:57;3.33;;;1.60;;
71042;SDS011;58696;52.134;5.500;2022-08-07T18:02:03;2.88;;;1.60;;
71042;SDS011;58696;52.134;5.500;2022-08-07T18:04:54;2.28;;;1.50;;
71042;SDS011;58696;52.134;5.500;2022-08-07T18:10:51;2.85;;;1.55;;
71042;SDS011;58696;52.134;5.500;2022-08-07T18:13:54;3.13;;;1.60;;
71042;SDS011;58696;52.134;5.500;2022-08-07T18:16:56;3.05;;;1.65;;
71042;SDS011;58696;52.134;5.500;2022-08-07T18:22:47;4.57;;;1.85;;
71042;SDS011;58696;52.134;5.500;2022-08-07T18:25:30;3.08;;;1.73;;
71042;SDS011;58696;52.134;5.500;2022-08-07T18:36:52;5.18;;;1.98;;
71042;SDS011;58696;52.134;5.500;2022-08-07T18:42:44;2.25;;;1.60;;
71042;SDS011;58696;52.134;5.500;2022-08-07T18:45:26;6.05;;;1.83;;
71042;SDS011;58696;52.134;5.500;2022-08-07T18:48:25;4.75;;;2.08;;
71042;SDS011;58696;52.134;5.500;2022-08-07T18:51:20;5.10;;;2.00;;
71042;SDS011;58696;52.134;5.500;2022-08-07T18:54:25;4.68;;;2.25;;
71042;SDS011;58696;52.134;5.500;2022-08-07T19:05:31;6.35;;;2.10;;
71042;SDS011;58696;52.134;5.500;2022-08-07T19:08:28;2.50;;;1.70;;
71042;SDS011;58696;52.134;5.500;2022-08-07T19:11:07;2.95;;;2.15;;
71042;SDS011;58696;52.134;5.500;2022-08-07T19:14:34;6.03;;;2.30;;
71042;SDS011;58696;52.134;5.500;2022-08-07T19:17:18;6.63;;;2.15;;
71042;SDS011;58696;52.134;5.500;2022-08-07T19:20:11;6.85;;;1.95;;
71042;SDS011;58696;52.134;5.500;2022-08-07T19:25:45;2.65;;;2.08;;
71042;SDS011;58696;52.134;5.500;2022-08-07T19:28:34;5.95;;;2.10;;
71042;SDS011;58696;52.134;5.500;2022-08-07T19:31:28;5.85;;;2.15;;
71042;SDS011;58696;52.134;5.500;2022-08-07T19:34:23;3.05;;;2.08;;
71042;SDS011;58696;52.134;5.500;2022-08-07T19:36:59;4.75;;;2.58;;
71042;SDS011;58696;52.134;5.500;2022-08-07T19:39:42;4.32;;;2.88;;
71042;SDS011;58696;52.134;5.500;2022-08-07T19:42:28;3.22;;;2.50;;
71042;SDS011;58696;52.134;5.500;2022-08-07T19:45:05;4.30;;;2.75;;
71042;SDS011;58696;52.134;5.500;2022-08-07T19:47:57;4.18;;;3.17;;
71042;SDS011;58696;52.134;5.500;2022-08-07T19:50:25;5.63;;;2.35;;
71042;SDS011;58696;52.134;5.500;2022-08-07T19:53:12;2.63;;;2.30;;
71042;SDS011;58696;52.134;5.500;2022-08-07T19:56:00;7.55;;;3.30;;
71042;SDS011;58696;52.134;5.500;2022-08-07T19:58:54;4.90;;;3.20;;
71042;SDS011;58696;52.134;5.500;2022-08-07T20:01:22;9.30;;;3.58;;
71042;SDS011;58696;52.134;5.500;2022-08-07T20:04:10;4.10;;;3.00;;
71042;SDS011;58696;52.134;5.500;2022-08-07T20:06:57;4.65;;;3.40;;
71042;SDS011;58696;52.134;5.500;2022-08-07T20:09:25;9.85;;;3.33;;
71042;SDS011;58696;52.134;5.500;2022-08-07T20:12:12;5.97;;;3.10;;
71042;SDS011;58696;52.134;5.500;2022-08-07T20:14:57;9.73;;;2.80;;
71042;SDS011;58696;52.134;5.500;2022-08-07T20:17:29;5.68;;;2.63;;
71042;SDS011;58696;52.134;5.500;2022-08-07T20:20:03;5.43;;;3.03;;
71042;SDS011;58696;52.134;5.500;2022-08-07T20:22:32;4.43;;;3.20;;
71042;SDS011;58696;52.134;5.500;2022-08-07T20:25:06;6.28;;;3.00;;
71042;SDS011;58696;52.134;5.500;2022-08-07T20:27:45;8.30;;;3.38;;
71042;SDS011;58696;52.134;5.500;2022-08-07T20:30:27;10.60;;;3.28;;
71042;SDS011;58696;52.134;5.500;2022-08-07T20:32:57;5.97;;;3.38;;
71042;SDS011;58696;52.134;5.500;2022-08-07T20:35:29;6.10;;;3.20;;
71042;SDS011;58696;52.134;5.500;2022-08-07T20:38:22;13.02;;;3.50;;